sensor_id;sensor_type;location;lat;lon;timestamp;temperature;humidity
4677;DHT22;2352;48.180;11.478;2023-04-03T00:00:26;7.80;97.30
4677;DHT22;2352;48.180;11.478;2023-04-03T00:03:31;7.80;97.10
4677;DHT22;2352;48.180;11.478;2023-04-03T00:06:34;7.90;97.30
4677;DHT22;2352;48.180;11.478;2023-04-03T00:09:37;7.80;97.00
4677;DHT22;2352;48.180;11.478;2023-04-03T00:12:40;7.80;97.30
4677;DHT22;2352;48.180;11.478;2023-04-03T00:15:43;7.80;97.20
4677;DHT22;2352;48.180;11.478;2023-04-03T00:18:47;7.70;97.20
4677;DHT22;2352;48.180;11.478;2023-04-03T00:21:50;7.70;97.40
4677;DHT22;2352;48.180;11.478;2023-04-03T00:24:55;7.80;97.60
4677;DHT22;2352;48.180;11.478;2023-04-03T00:27:58;7.80;97.10
4677;DHT22;2352;48.180;11.478;2023-04-03T00:31:01;7.70;97.20
4677;DHT22;2352;48.180;11.478;2023-04-03T00:34:06;7.60;97.30
4677;DHT22;2352;48.180;11.478;2023-04-03T00:37:08;7.70;97.30
4677;DHT22;2352;48.180;11.478;2023-04-03T00:40:14;7.70;97.50
4677;DHT22;2352;48.180;11.478;2023-04-03T00:43:22;7.70;97.30
4677;DHT22;2352;48.180;11.478;2023-04-03T00:46:25;7.60;97.30
4677;DHT22;2352;48.180;11.478;2023-04-03T00:49:30;7.50;97.50
4677;DHT22;2352;48.180;11.478;2023-04-03T00:52:33;7.50;98.00
4677;DHT22;2352;48.180;11.478;2023-04-03T00:55:37;7.50;97.90
4677;DHT22;2352;48.180;11.478;2023-04-03T00:58:44;7.50;97.90
4677;DHT22;2352;48.180;11.478;2023-04-03T01:01:49;7.50;98.00
4677;DHT22;2352;48.180;11.478;2023-04-03T01:04:53;7.60;97.90
4677;DHT22;2352;48.180;11.478;2023-04-03T01:07:57;7.60;98.10
4677;DHT22;2352;48.180;11.478;2023-04-03T01:11:00;7.60;98.30
4677;DHT22;2352;48.180;11.478;2023-04-03T01:14:03;7.50;97.80
4677;DHT22;2352;48.180;11.478;2023-04-03T01:17:28;7.50;98.30
4677;DHT22;2352;48.180;11.478;2023-04-03T01:27:43;7.50;97.80
4677;DHT22;2352;48.180;11.478;2023-04-03T01:30:51;7.40;97.90
4677;DHT22;2352;48.180;11.478;2023-04-03T01:33:57;7.40;98.10
4677;DHT22;2352;48.180;11.478;2023-04-03T01:37:01;7.40;98.50
4677;DHT22;2352;48.180;11.478;2023-04-03T01:40:04;7.40;98.40
4677;DHT22;2352;48.180;11.478;2023-04-03T01:43:08;7.40;98.20
4677;DHT22;2352;48.180;11.478;2023-04-03T01:46:11;7.40;98.60
4677;DHT22;2352;48.180;11.478;2023-04-03T01:49:16;7.40;98.50
4677;DHT22;2352;48.180;11.478;2023-04-03T01:52:19;7.40;98.50
4677;DHT22;2352;48.180;11.478;2023-04-03T01:55:21;7.40;98.40
4677;DHT22;2352;48.180;11.478;2023-04-03T01:58:24;7.40;98.30
4677;DHT22;2352;48.180;11.478;2023-04-03T02:01:27;7.40;98.30
4677;DHT22;2352;48.180;11.478;2023-04-03T02:04:32;7.40;98.60
4677;DHT22;2352;48.180;11.478;2023-04-03T02:07:35;7.40;98.50
4677;DHT22;2352;48.180;11.478;2023-04-03T02:10:38;7.40;98.20
4677;DHT22;2352;48.180;11.478;2023-04-03T02:13:41;7.40;98.80
4677;DHT22;2352;48.180;11.478;2023-04-03T02:16:44;7.40;98.50
4677;DHT22;2352;48.180;11.478;2023-04-03T02:19:48;7.40;98.60
4677;DHT22;2352;48.180;11.478;2023-04-03T02:22:51;7.40;98.50
4677;DHT22;2352;48.180;11.478;2023-04-03T02:26:05;7.40;98.90
4677;DHT22;2352;48.180;11.478;2023-04-03T02:29:09;7.40;98.40
4677;DHT22;2352;48.180;11.478;2023-04-03T02:32:12;7.30;98.70
4677;DHT22;2352;48.180;11.478;2023-04-03T02:35:16;7.40;98.40
4677;DHT22;2352;48.180;11.478;2023-04-03T02:38:19;7.40;98.50
4677;DHT22;2352;48.180;11.478;2023-04-03T02:41:22;7.40;98.20
4677;DHT22;2352;48.180;11.478;2023-04-03T02:44:27;7.40;98.30
4677;DHT22;2352;48.180;11.478;2023-04-03T02:47:30;7.40;98.20
4677;DHT22;2352;48.180;11.478;2023-04-03T02:50:34;7.40;98.00
4677;DHT22;2352;48.180;11.478;2023-04-03T02:53:37;7.40;98.30
4677;DHT22;2352;48.180;11.478;2023-04-03T02:56:40;7.40;98.80
4677;DHT22;2352;48.180;11.478;2023-04-03T02:59:43;7.40;98.30
4677;DHT22;2352;48.180;11.478;2023-04-03T03:02:48;7.40;98.40
4677;DHT22;2352;48.180;11.478;2023-04-03T03:06:02;7.40;98.10
4677;DHT22;2352;48.180;11.478;2023-04-03T03:09:05;7.40;98.40
4677;DHT22;2352;48.180;11.478;2023-04-03T03:12:08;7.40;98.30
4677;DHT22;2352;48.180;11.478;2023-04-03T03:15:12;7.40;98.10
4677;DHT22;2352;48.180;11.478;2023-04-03T03:18:15;7.40;98.30
4677;DHT22;2352;48.180;11.478;2023-04-03T03:21:19;7.30;97.90
4677;DHT22;2352;48.180;11.478;2023-04-03T03:24:22;7.30;98.00
4677;DHT22;2352;48.180;11.478;2023-04-03T03:27:25;7.30;98.30
4677;DHT22;2352;48.180;11.478;2023-04-03T03:30:28;7.30;97.90
4677;DHT22;2352;48.180;11.478;2023-04-03T03:33:31;7.40;98.00
4677;DHT22;2352;48.180;11.478;2023-04-03T03:36:36;7.30;98.00
4677;DHT22;2352;48.180;11.478;2023-04-03T03:39:38;7.30;98.50
4677;DHT22;2352;48.180;11.478;2023-04-03T03:42:41;7.30;98.20
4677;DHT22;2352;48.180;11.478;2023-04-03T03:45:44;7.30;98.00
4677;DHT22;2352;48.180;11.478;2023-04-03T03:48:48;7.40;97.70
4677;DHT22;2352;48.180;11.478;2023-04-03T03:51:52;7.30;97.70
4677;DHT22;2352;48.180;11.478;2023-04-03T03:54:55;7.40;97.20
4677;DHT22;2352;48.180;11.478;2023-04-03T03:57:58;7.40;97.50
4677;DHT22;2352;48.180;11.478;2023-04-03T04:01:03;7.40;97.50
4677;DHT22;2352;48.180;11.478;2023-04-03T04:04:07;7.30;97.30
4677;DHT22;2352;48.180;11.478;2023-04-03T04:07:12;7.30;97.20
4677;DHT22;2352;48.180;11.478;2023-04-03T04:10:15;7.30;97.50
4677;DHT22;2352;48.180;11.478;2023-04-03T04:13:17;7.20;97.70
4677;DHT22;2352;48.180;11.478;2023-04-03T04:16:20;7.30;97.90
4677;DHT22;2352;48.180;11.478;2023-04-03T04:19:23;7.30;97.80
4677;DHT22;2352;48.180;11.478;2023-04-03T04:22:28;7.30;97.50
4677;DHT22;2352;48.180;11.478;2023-04-03T04:25:30;7.30;97.50
4677;DHT22;2352;48.180;11.478;2023-04-03T04:28:34;7.30;97.70
4677;DHT22;2352;48.180;11.478;2023-04-03T04:31:37;7.30;97.90
4677;DHT22;2352;48.180;11.478;2023-04-03T04:34:40;7.30;97.70
4677;DHT22;2352;48.180;11.478;2023-04-03T04:37:44;7.30;97.70
4677;DHT22;2352;48.180;11.478;2023-04-03T04:40:47;7.30;97.40
4677;DHT22;2352;48.180;11.478;2023-04-03T04:43:51;7.30;97.80
4677;DHT22;2352;48.180;11.478;2023-04-03T04:46:54;7.30;97.90
4677;DHT22;2352;48.180;11.478;2023-04-03T04:49:57;7.30;97.90
4677;DHT22;2352;48.180;11.478;2023-04-03T04:53:01;7.30;97.10
4677;DHT22;2352;48.180;11.478;2023-04-03T04:56:04;7.20;97.40
4677;DHT22;2352;48.180;11.478;2023-04-03T04:59:08;7.20;97.60
4677;DHT22;2352;48.180;11.478;2023-04-03T05:02:10;7.30;97.40
4677;DHT22;2352;48.180;11.478;2023-04-03T05:05:13;7.30;97.70
4677;DHT22;2352;48.180;11.478;2023-04-03T05:08:18;7.30;97.60
4677;DHT22;2352;48.180;11.478;2023-04-03T05:11:21;7.30;97.50
4677;DHT22;2352;48.180;11.478;2023-04-03T05:14:25;7.30;97.60
4677;DHT22;2352;48.180;11.478;2023-04-03T05:17:28;7.30;97.30
4677;DHT22;2352;48.180;11.478;2023-04-03T05:20:32;7.30;97.10
4677;DHT22;2352;48.180;11.478;2023-04-03T05:23:36;7.30;97.20
4677;DHT22;2352;48.180;11.478;2023-04-03T05:26:39;7.30;97.10
4677;DHT22;2352;48.180;11.478;2023-04-03T05:29:42;7.30;97.20
4677;DHT22;2352;48.180;11.478;2023-04-03T05:32:46;7.30;97.10
4677;DHT22;2352;48.180;11.478;2023-04-03T05:35:49;7.30;97.50
4677;DHT22;2352;48.180;11.478;2023-04-03T05:38:53;7.30;97.20
4677;DHT22;2352;48.180;11.478;2023-04-03T05:41:57;7.30;97.00
4677;DHT22;2352;48.180;11.478;2023-04-03T05:45:00;7.20;96.80
4677;DHT22;2352;48.180;11.478;2023-04-03T05:48:04;7.30;97.10
4677;DHT22;2352;48.180;11.478;2023-04-03T05:51:09;7.30;96.40
4677;DHT22;2352;48.180;11.478;2023-04-03T05:54:19;7.20;96.30
4677;DHT22;2352;48.180;11.478;2023-04-03T05:57:24;7.20;96.90
4677;DHT22;2352;48.180;11.478;2023-04-03T06:00:27;7.20;96.80
4677;DHT22;2352;48.180;11.478;2023-04-03T06:03:30;7.00;97.00
4677;DHT22;2352;48.180;11.478;2023-04-03T06:06:44;7.10;97.00
4677;DHT22;2352;48.180;11.478;2023-04-03T06:09:50;7.10;96.90
4677;DHT22;2352;48.180;11.478;2023-04-03T06:12:53;7.10;96.80
4677;DHT22;2352;48.180;11.478;2023-04-03T06:15:56;7.10;97.00
4677;DHT22;2352;48.180;11.478;2023-04-03T06:19:00;7.20;97.20
4677;DHT22;2352;48.180;11.478;2023-04-03T06:22:03;7.30;97.00
4677;DHT22;2352;48.180;11.478;2023-04-03T06:25:08;7.30;97.00
4677;DHT22;2352;48.180;11.478;2023-04-03T06:28:11;7.30;96.90
4677;DHT22;2352;48.180;11.478;2023-04-03T06:31:15;7.30;96.70
4677;DHT22;2352;48.180;11.478;2023-04-03T06:34:18;7.30;96.70
4677;DHT22;2352;48.180;11.478;2023-04-03T06:37:23;7.40;95.90
4677;DHT22;2352;48.180;11.478;2023-04-03T06:40:28;7.30;96.30
4677;DHT22;2352;48.180;11.478;2023-04-03T06:43:31;7.30;96.30
4677;DHT22;2352;48.180;11.478;2023-04-03T06:46:35;7.30;96.70
4677;DHT22;2352;48.180;11.478;2023-04-03T06:49:38;7.40;96.30
4677;DHT22;2352;48.180;11.478;2023-04-03T06:52:41;7.30;96.00
4677;DHT22;2352;48.180;11.478;2023-04-03T06:55:45;7.30;96.40
4677;DHT22;2352;48.180;11.478;2023-04-03T06:58:49;7.30;96.60
4677;DHT22;2352;48.180;11.478;2023-04-03T07:01:53;7.30;96.20
4677;DHT22;2352;48.180;11.478;2023-04-03T07:04:56;7.40;96.50
4677;DHT22;2352;48.180;11.478;2023-04-03T07:07:59;7.50;96.30
4677;DHT22;2352;48.180;11.478;2023-04-03T07:11:04;7.40;96.20
4677;DHT22;2352;48.180;11.478;2023-04-03T07:14:07;7.40;96.80
4677;DHT22;2352;48.180;11.478;2023-04-03T07:17:10;7.30;97.10
4677;DHT22;2352;48.180;11.478;2023-04-03T07:20:13;7.50;97.30
4677;DHT22;2352;48.180;11.478;2023-04-03T07:23:17;7.40;97.10
4677;DHT22;2352;48.180;11.478;2023-04-03T07:26:21;7.60;96.80
4677;DHT22;2352;48.180;11.478;2023-04-03T07:29:24;7.50;95.70
4677;DHT22;2352;48.180;11.478;2023-04-03T07:32:28;7.60;96.40
4677;DHT22;2352;48.180;11.478;2023-04-03T07:35:31;7.50;96.20
4677;DHT22;2352;48.180;11.478;2023-04-03T07:38:34;7.70;95.60
4677;DHT22;2352;48.180;11.478;2023-04-03T07:41:39;7.70;95.70
4677;DHT22;2352;48.180;11.478;2023-04-03T07:44:42;7.70;95.70
4677;DHT22;2352;48.180;11.478;2023-04-03T07:47:45;7.80;95.10
4677;DHT22;2352;48.180;11.478;2023-04-03T07:50:49;7.80;95.30
4677;DHT22;2352;48.180;11.478;2023-04-03T07:53:52;7.80;94.90
4677;DHT22;2352;48.180;11.478;2023-04-03T07:56:57;7.70;94.50
4677;DHT22;2352;48.180;11.478;2023-04-03T08:00:00;7.80;95.00
4677;DHT22;2352;48.180;11.478;2023-04-03T08:03:04;7.60;95.40
4677;DHT22;2352;48.180;11.478;2023-04-03T08:06:09;7.50;95.00
4677;DHT22;2352;48.180;11.478;2023-04-03T08:09:17;7.60;96.20
4677;DHT22;2352;48.180;11.478;2023-04-03T08:12:21;7.60;95.50
4677;DHT22;2352;48.180;11.478;2023-04-03T08:15:24;7.70;95.30
4677;DHT22;2352;48.180;11.478;2023-04-03T08:18:27;7.80;94.80
4677;DHT22;2352;48.180;11.478;2023-04-03T08:21:30;7.80;94.40
4677;DHT22;2352;48.180;11.478;2023-04-03T08:24:33;7.80;95.00
4677;DHT22;2352;48.180;11.478;2023-04-03T08:27:39;7.90;95.30
4677;DHT22;2352;48.180;11.478;2023-04-03T08:30:42;7.80;94.70
4677;DHT22;2352;48.180;11.478;2023-04-03T08:33:46;7.70;94.50
4677;DHT22;2352;48.180;11.478;2023-04-03T08:36:48;7.70;95.00
4677;DHT22;2352;48.180;11.478;2023-04-03T08:39:52;7.80;95.40
4677;DHT22;2352;48.180;11.478;2023-04-03T08:43:08;7.80;95.30
4677;DHT22;2352;48.180;11.478;2023-04-03T08:46:17;7.80;94.20
4677;DHT22;2352;48.180;11.478;2023-04-03T08:49:26;7.80;94.90
4677;DHT22;2352;48.180;11.478;2023-04-03T08:52:34;7.80;94.70
4677;DHT22;2352;48.180;11.478;2023-04-03T08:55:41;7.90;94.40
4677;DHT22;2352;48.180;11.478;2023-04-03T08:58:50;7.90;94.90
4677;DHT22;2352;48.180;11.478;2023-04-03T09:01:58;7.90;94.70
4677;DHT22;2352;48.180;11.478;2023-04-03T09:05:08;8.00;94.30
4677;DHT22;2352;48.180;11.478;2023-04-03T09:08:21;8.00;93.80
4677;DHT22;2352;48.180;11.478;2023-04-03T09:11:27;7.90;93.10
4677;DHT22;2352;48.180;11.478;2023-04-03T09:14:43;7.90;93.70
4677;DHT22;2352;48.180;11.478;2023-04-03T09:17:57;7.90;93.10
4677;DHT22;2352;48.180;11.478;2023-04-03T09:21:08;8.00;93.20
4677;DHT22;2352;48.180;11.478;2023-04-03T09:24:16;8.00;93.80
4677;DHT22;2352;48.180;11.478;2023-04-03T09:27:19;8.10;93.40
4677;DHT22;2352;48.180;11.478;2023-04-03T09:30:25;7.90;93.70
4677;DHT22;2352;48.180;11.478;2023-04-03T09:33:30;8.00;93.90
4677;DHT22;2352;48.180;11.478;2023-04-03T09:36:43;8.10;93.40
4677;DHT22;2352;48.180;11.478;2023-04-03T09:39:51;8.00;93.00
4677;DHT22;2352;48.180;11.478;2023-04-03T09:42:56;8.10;93.80
4677;DHT22;2352;48.180;11.478;2023-04-03T09:46:25;8.10;94.30
4677;DHT22;2352;48.180;11.478;2023-04-03T09:49:31;8.30;94.10
4677;DHT22;2352;48.180;11.478;2023-04-03T09:52:36;8.30;92.80
4677;DHT22;2352;48.180;11.478;2023-04-03T09:55:43;8.40;93.20
4677;DHT22;2352;48.180;11.478;2023-04-03T09:58:48;8.40;92.70
4677;DHT22;2352;48.180;11.478;2023-04-03T10:02:02;8.50;92.40
4677;DHT22;2352;48.180;11.478;2023-04-03T10:05:26;8.60;92.40
4677;DHT22;2352;48.180;11.478;2023-04-03T10:08:30;8.40;92.30
4677;DHT22;2352;48.180;11.478;2023-04-03T10:11:34;8.30;91.70
4677;DHT22;2352;48.180;11.478;2023-04-03T10:14:38;8.30;91.70
4677;DHT22;2352;48.180;11.478;2023-04-03T10:17:50;8.30;92.00
4677;DHT22;2352;48.180;11.478;2023-04-03T10:21:02;8.30;92.10
4677;DHT22;2352;48.180;11.478;2023-04-03T10:24:14;8.10;92.00
4677;DHT22;2352;48.180;11.478;2023-04-03T10:27:29;8.10;92.00
4677;DHT22;2352;48.180;11.478;2023-04-03T10:30:42;8.00;92.60
4677;DHT22;2352;48.180;11.478;2023-04-03T10:33:58;8.00;92.50
4677;DHT22;2352;48.180;11.478;2023-04-03T10:37:10;8.20;93.00
4677;DHT22;2352;48.180;11.478;2023-04-03T10:40:24;8.20;93.10
4677;DHT22;2352;48.180;11.478;2023-04-03T10:43:36;8.20;93.10
4677;DHT22;2352;48.180;11.478;2023-04-03T10:46:44;8.30;92.80
4677;DHT22;2352;48.180;11.478;2023-04-03T10:49:58;8.20;92.10
4677;DHT22;2352;48.180;11.478;2023-04-03T10:53:09;8.30;92.10
4677;DHT22;2352;48.180;11.478;2023-04-03T10:56:19;8.20;92.40
4677;DHT22;2352;48.180;11.478;2023-04-03T10:59:27;8.30;91.70
4677;DHT22;2352;48.180;11.478;2023-04-03T11:02:35;8.10;91.00
4677;DHT22;2352;48.180;11.478;2023-04-03T11:05:43;7.90;91.00
4677;DHT22;2352;48.180;11.478;2023-04-03T11:08:50;7.90;91.60
4677;DHT22;2352;48.180;11.478;2023-04-03T11:12:01;7.90;90.40
4677;DHT22;2352;48.180;11.478;2023-04-03T11:15:11;7.90;90.80
4677;DHT22;2352;48.180;11.478;2023-04-03T11:18:18;7.90;90.70
4677;DHT22;2352;48.180;11.478;2023-04-03T11:21:27;7.90;90.50
4677;DHT22;2352;48.180;11.478;2023-04-03T11:24:33;8.00;90.20
4677;DHT22;2352;48.180;11.478;2023-04-03T11:27:41;8.20;90.70
4677;DHT22;2352;48.180;11.478;2023-04-03T11:30:50;8.30;90.60
4677;DHT22;2352;48.180;11.478;2023-04-03T11:34:05;8.30;90.00
4677;DHT22;2352;48.180;11.478;2023-04-03T11:37:20;8.40;90.40
4677;DHT22;2352;48.180;11.478;2023-04-03T11:40:28;8.40;89.60
4677;DHT22;2352;48.180;11.478;2023-04-03T11:43:32;8.20;90.00
4677;DHT22;2352;48.180;11.478;2023-04-03T11:46:52;8.30;89.30
4677;DHT22;2352;48.180;11.478;2023-04-03T11:50:00;8.10;85.30
4677;DHT22;2352;48.180;11.478;2023-04-03T11:53:30;8.10;85.70
4677;DHT22;2352;48.180;11.478;2023-04-03T11:56:33;8.00;85.00
4677;DHT22;2352;48.180;11.478;2023-04-03T11:59:37;8.00;81.40
4677;DHT22;2352;48.180;11.478;2023-04-03T12:02:40;8.10;83.80
4677;DHT22;2352;48.180;11.478;2023-04-03T12:05:56;8.10;81.70
4677;DHT22;2352;48.180;11.478;2023-04-03T12:09:01;7.90;82.90
4677;DHT22;2352;48.180;11.478;2023-04-03T12:12:24;8.10;83.70
4677;DHT22;2352;48.180;11.478;2023-04-03T12:15:52;8.20;81.80
4677;DHT22;2352;48.180;11.478;2023-04-03T12:18:58;8.40;83.50
4677;DHT22;2352;48.180;11.478;2023-04-03T12:22:07;8.60;81.80
4677;DHT22;2352;48.180;11.478;2023-04-03T12:25:46;8.60;81.30
4677;DHT22;2352;48.180;11.478;2023-04-03T12:28:52;8.60;78.80
4677;DHT22;2352;48.180;11.478;2023-04-03T12:32:06;8.50;79.20
4677;DHT22;2352;48.180;11.478;2023-04-03T12:35:24;8.60;79.20
4677;DHT22;2352;48.180;11.478;2023-04-03T12:39:04;8.70;78.90
4677;DHT22;2352;48.180;11.478;2023-04-03T12:42:22;8.80;78.20
4677;DHT22;2352;48.180;11.478;2023-04-03T12:45:26;9.00;80.30
4677;DHT22;2352;48.180;11.478;2023-04-03T12:48:30;9.10;78.10
4677;DHT22;2352;48.180;11.478;2023-04-03T12:51:38;9.20;77.10
4677;DHT22;2352;48.180;11.478;2023-04-03T12:54:42;9.30;76.90
4677;DHT22;2352;48.180;11.478;2023-04-03T12:57:49;9.30;77.10
4677;DHT22;2352;48.180;11.478;2023-04-03T13:01:02;9.30;76.80
4677;DHT22;2352;48.180;11.478;2023-04-03T13:04:05;9.10;74.50
4677;DHT22;2352;48.180;11.478;2023-04-03T13:07:19;9.20;76.30
4677;DHT22;2352;48.180;11.478;2023-04-03T13:10:22;9.30;77.80
4677;DHT22;2352;48.180;11.478;2023-04-03T13:13:27;9.00;73.00
4677;DHT22;2352;48.180;11.478;2023-04-03T13:16:30;8.70;74.50
4677;DHT22;2352;48.180;11.478;2023-04-03T13:19:33;9.00;78.60
4677;DHT22;2352;48.180;11.478;2023-04-03T13:22:38;9.20;76.20
4677;DHT22;2352;48.180;11.478;2023-04-03T13:25:45;9.30;78.30
4677;DHT22;2352;48.180;11.478;2023-04-03T13:28:50;9.20;75.30
4677;DHT22;2352;48.180;11.478;2023-04-03T13:31:55;9.10;73.20
4677;DHT22;2352;48.180;11.478;2023-04-03T13:34:59;9.20;75.00
4677;DHT22;2352;48.180;11.478;2023-04-03T13:38:24;8.70;74.20
4677;DHT22;2352;48.180;11.478;2023-04-03T13:41:30;8.70;76.00
4677;DHT22;2352;48.180;11.478;2023-04-03T13:44:35;8.70;75.80
4677;DHT22;2352;48.180;11.478;2023-04-03T13:47:44;8.80;75.10
4677;DHT22;2352;48.180;11.478;2023-04-03T13:50:53;8.60;75.90
4677;DHT22;2352;48.180;11.478;2023-04-03T13:54:00;8.80;75.90
4677;DHT22;2352;48.180;11.478;2023-04-03T13:57:11;8.80;76.70
4677;DHT22;2352;48.180;11.478;2023-04-03T14:03:43;8.90;74.10
4677;DHT22;2352;48.180;11.478;2023-04-03T14:06:47;8.90;74.40
4677;DHT22;2352;48.180;11.478;2023-04-03T14:09:50;9.00;74.30
4677;DHT22;2352;48.180;11.478;2023-04-03T14:12:53;8.90;73.00
4677;DHT22;2352;48.180;11.478;2023-04-03T14:15:58;9.10;73.30
4677;DHT22;2352;48.180;11.478;2023-04-03T14:19:22;9.00;72.80
4677;DHT22;2352;48.180;11.478;2023-04-03T14:22:26;9.30;71.30
4677;DHT22;2352;48.180;11.478;2023-04-03T14:25:30;9.60;71.50
4677;DHT22;2352;48.180;11.478;2023-04-03T14:28:33;9.80;71.10
4677;DHT22;2352;48.180;11.478;2023-04-03T14:31:38;10.20;70.80
4677;DHT22;2352;48.180;11.478;2023-04-03T14:34:42;10.40;69.00
4677;DHT22;2352;48.180;11.478;2023-04-03T14:37:46;10.60;62.80
4677;DHT22;2352;48.180;11.478;2023-04-03T14:40:50;10.70;62.50
4677;DHT22;2352;48.180;11.478;2023-04-03T14:43:53;10.90;62.80
4677;DHT22;2352;48.180;11.478;2023-04-03T14:46:57;11.10;64.20
4677;DHT22;2352;48.180;11.478;2023-04-03T14:50:03;11.40;66.40
4677;DHT22;2352;48.180;11.478;2023-04-03T14:53:06;11.60;61.70
4677;DHT22;2352;48.180;11.478;2023-04-03T14:56:13;11.60;63.20
4677;DHT22;2352;48.180;11.478;2023-04-03T14:59:16;11.50;59.70
4677;DHT22;2352;48.180;11.478;2023-04-03T15:02:28;11.50;62.90
4677;DHT22;2352;48.180;11.478;2023-04-03T15:05:31;11.70;61.40
4677;DHT22;2352;48.180;11.478;2023-04-03T15:08:34;11.60;58.50
4677;DHT22;2352;48.180;11.478;2023-04-03T15:11:37;11.30;57.60
4677;DHT22;2352;48.180;11.478;2023-04-03T15:14:40;11.20;58.50
4677;DHT22;2352;48.180;11.478;2023-04-03T15:18:02;11.10;58.30
4677;DHT22;2352;48.180;11.478;2023-04-03T15:21:05;11.00;58.30
4677;DHT22;2352;48.180;11.478;2023-04-03T15:24:09;11.00;57.10
4677;DHT22;2352;48.180;11.478;2023-04-03T15:27:12;11.10;57.70
4677;DHT22;2352;48.180;11.478;2023-04-03T15:30:18;11.10;58.60
4677;DHT22;2352;48.180;11.478;2023-04-03T15:33:23;11.20;56.80
4677;DHT22;2352;48.180;11.478;2023-04-03T15:36:26;11.20;57.70
4677;DHT22;2352;48.180;11.478;2023-04-03T15:39:35;11.00;55.00
4677;DHT22;2352;48.180;11.478;2023-04-03T15:42:38;10.80;55.20
4677;DHT22;2352;48.180;11.478;2023-04-03T15:45:42;10.50;55.20
4677;DHT22;2352;48.180;11.478;2023-04-03T15:48:46;10.80;55.80
4677;DHT22;2352;48.180;11.478;2023-04-03T15:51:51;10.90;55.60
4677;DHT22;2352;48.180;11.478;2023-04-03T15:54:54;10.90;57.20
4677;DHT22;2352;48.180;11.478;2023-04-03T15:57:57;11.10;56.70
4677;DHT22;2352;48.180;11.478;2023-04-03T16:01:00;11.00;55.90
4677;DHT22;2352;48.180;11.478;2023-04-03T16:04:06;10.90;56.90
4677;DHT22;2352;48.180;11.478;2023-04-03T16:07:09;11.10;56.50
4677;DHT22;2352;48.180;11.478;2023-04-03T16:10:14;10.90;56.00
4677;DHT22;2352;48.180;11.478;2023-04-03T16:13:17;11.00;55.30
4677;DHT22;2352;48.180;11.478;2023-04-03T16:16:21;11.10;54.90
4677;DHT22;2352;48.180;11.478;2023-04-03T16:19:26;11.20;55.00
4677;DHT22;2352;48.180;11.478;2023-04-03T16:22:29;11.10;54.40
4677;DHT22;2352;48.180;11.478;2023-04-03T16:25:32;11.00;55.30
4677;DHT22;2352;48.180;11.478;2023-04-03T16:28:35;10.50;55.80
4677;DHT22;2352;48.180;11.478;2023-04-03T16:31:38;10.60;57.30
4677;DHT22;2352;48.180;11.478;2023-04-03T16:34:43;10.80;57.10
4677;DHT22;2352;48.180;11.478;2023-04-03T16:37:46;10.80;56.00
4677;DHT22;2352;48.180;11.478;2023-04-03T16:40:49;10.90;55.20
4677;DHT22;2352;48.180;11.478;2023-04-03T16:43:52;11.00;56.00
4677;DHT22;2352;48.180;11.478;2023-04-03T16:46:55;11.00;55.00
4677;DHT22;2352;48.180;11.478;2023-04-03T16:49:59;10.60;52.90
4677;DHT22;2352;48.180;11.478;2023-04-03T16:53:02;10.20;54.40
4677;DHT22;2352;48.180;11.478;2023-04-03T16:56:05;10.10;55.30
4677;DHT22;2352;48.180;11.478;2023-04-03T16:59:08;10.30;55.60
4677;DHT22;2352;48.180;11.478;2023-04-03T17:02:11;10.30;55.20
4677;DHT22;2352;48.180;11.478;2023-04-03T17:05:16;10.20;55.80
4677;DHT22;2352;48.180;11.478;2023-04-03T17:08:19;10.10;55.60
4677;DHT22;2352;48.180;11.478;2023-04-03T17:11:22;9.70;56.30
4677;DHT22;2352;48.180;11.478;2023-04-03T17:14:25;9.60;55.60
4677;DHT22;2352;48.180;11.478;2023-04-03T17:17:28;9.30;56.50
4677;DHT22;2352;48.180;11.478;2023-04-03T17:20:32;9.40;56.20
4677;DHT22;2352;48.180;11.478;2023-04-03T17:23:39;9.50;56.50
4677;DHT22;2352;48.180;11.478;2023-04-03T17:26:43;9.30;56.80
4677;DHT22;2352;48.180;11.478;2023-04-03T17:29:46;9.40;57.30
4677;DHT22;2352;48.180;11.478;2023-04-03T17:32:49;9.10;57.40
4677;DHT22;2352;48.180;11.478;2023-04-03T17:35:55;9.20;58.50
4677;DHT22;2352;48.180;11.478;2023-04-03T17:38:58;8.80;58.40
4677;DHT22;2352;48.180;11.478;2023-04-03T17:42:01;8.80;59.00
4677;DHT22;2352;48.180;11.478;2023-04-03T17:45:05;8.80;59.10
4677;DHT22;2352;48.180;11.478;2023-04-03T17:48:09;8.70;59.40
4677;DHT22;2352;48.180;11.478;2023-04-03T17:51:15;8.80;59.80
4677;DHT22;2352;48.180;11.478;2023-04-03T17:54:18;8.80;60.10
4677;DHT22;2352;48.180;11.478;2023-04-03T17:57:21;8.70;60.00
4677;DHT22;2352;48.180;11.478;2023-04-03T18:00:24;8.70;62.00
4677;DHT22;2352;48.180;11.478;2023-04-03T18:03:27;8.80;62.00
4677;DHT22;2352;48.180;11.478;2023-04-03T18:06:32;8.80;60.90
4677;DHT22;2352;48.180;11.478;2023-04-03T18:09:39;8.80;60.70
4677;DHT22;2352;48.180;11.478;2023-04-03T18:12:42;8.70;60.30
4677;DHT22;2352;48.180;11.478;2023-04-03T18:15:45;8.70;60.90
4677;DHT22;2352;48.180;11.478;2023-04-03T18:18:48;8.60;60.90
4677;DHT22;2352;48.180;11.478;2023-04-03T18:22:12;8.60;59.90
4677;DHT22;2352;48.180;11.478;2023-04-03T18:25:16;8.60;63.70
4677;DHT22;2352;48.180;11.478;2023-04-03T18:28:19;8.70;90.80
4677;DHT22;2352;48.180;11.478;2023-04-03T18:31:24;8.80;88.70
4677;DHT22;2352;48.180;11.478;2023-04-03T18:34:28;8.80;73.90
4677;DHT22;2352;48.180;11.478;2023-04-03T18:37:32;8.70;66.60
4677;DHT22;2352;48.180;11.478;2023-04-03T18:40:35;8.80;65.20
4677;DHT22;2352;48.180;11.478;2023-04-03T18:43:38;8.70;65.20
4677;DHT22;2352;48.180;11.478;2023-04-03T18:46:41;8.50;65.00
4677;DHT22;2352;48.180;11.478;2023-04-03T18:49:44;8.40;64.80
4677;DHT22;2352;48.180;11.478;2023-04-03T18:52:48;8.30;65.40
4677;DHT22;2352;48.180;11.478;2023-04-03T18:55:52;8.20;63.70
4677;DHT22;2352;48.180;11.478;2023-04-03T18:58:54;8.10;63.80
4677;DHT22;2352;48.180;11.478;2023-04-03T19:01:57;8.20;65.30
4677;DHT22;2352;48.180;11.478;2023-04-03T19:05:02;7.80;65.20
4677;DHT22;2352;48.180;11.478;2023-04-03T19:08:07;7.80;66.60
4677;DHT22;2352;48.180;11.478;2023-04-03T19:11:10;7.80;64.60
4677;DHT22;2352;48.180;11.478;2023-04-03T19:14:13;7.70;65.60
4677;DHT22;2352;48.180;11.478;2023-04-03T19:17:17;7.80;66.00
4677;DHT22;2352;48.180;11.478;2023-04-03T19:20:21;7.60;65.40
4677;DHT22;2352;48.180;11.478;2023-04-03T19:23:25;7.60;67.10
4677;DHT22;2352;48.180;11.478;2023-04-03T19:26:30;7.30;66.30
4677;DHT22;2352;48.180;11.478;2023-04-03T19:29:33;7.20;67.00
4677;DHT22;2352;48.180;11.478;2023-04-03T19:32:36;7.40;67.10
4677;DHT22;2352;48.180;11.478;2023-04-03T19:35:39;7.40;67.00
4677;DHT22;2352;48.180;11.478;2023-04-03T19:38:44;7.50;67.00
4677;DHT22;2352;48.180;11.478;2023-04-03T19:41:47;7.30;65.80
4677;DHT22;2352;48.180;11.478;2023-04-03T19:44:50;7.30;67.20
4677;DHT22;2352;48.180;11.478;2023-04-03T19:47:53;6.80;66.60
4677;DHT22;2352;48.180;11.478;2023-04-03T19:50:59;6.80;67.90
4677;DHT22;2352;48.180;11.478;2023-04-03T19:54:06;6.60;68.00
4677;DHT22;2352;48.180;11.478;2023-04-03T19:57:08;6.60;68.30
4677;DHT22;2352;48.180;11.478;2023-04-03T20:00:12;6.80;68.40
4677;DHT22;2352;48.180;11.478;2023-04-03T20:03:15;6.60;69.00
4677;DHT22;2352;48.180;11.478;2023-04-03T20:06:18;6.50;69.40
4677;DHT22;2352;48.180;11.478;2023-04-03T20:09:23;6.40;69.90
4677;DHT22;2352;48.180;11.478;2023-04-03T20:12:27;6.60;69.60
4677;DHT22;2352;48.180;11.478;2023-04-03T20:15:30;6.70;68.90
4677;DHT22;2352;48.180;11.478;2023-04-03T20:18:40;6.70;69.70